.
WxDataArchive / Data Records for 2007-04-01
2007-03-31 April 2007 2007-04-02

Data Records for Sunday, 01 April 2007

Time	Temp	Chill	HIndex	Humid	Dewpt	 Wind 	HiWind	WindDir	Rain 	Barom 
-----	----	-----	------	-----	-----	------	------	-------	-----	----- 
00:00	49.5	49.5	49.5	95	48.1	3	6	112	0.00	29.775 
00:05	49.6	48.4	49.6	95	48.2	4	9	90	0.00	29.771 
00:10	49.6	49.6	49.6	95	48.2	3	5	112	0.00	29.762 
00:15	49.8	49.8	49.8	95	48.4	3	6	112	0.00	29.761 
00:20	49.9	49.9	49.9	96	48.8	3	5	90	0.00	29.760 
00:25	49.9	48.8	49.9	96	48.8	4	10	90	0.00	29.755 
00:30	49.9	49.9	49.9	96	48.8	3	6	90	0.00	29.753 
00:35	50.1	50.1	50.1	96	49.0	4	8	90	0.00	29.749 
00:40	50.2	50.2	50.2	96	49.1	3	6	90	0.00	29.746 
00:45	50.4	50.4	50.4	96	49.3	3	6	112	0.00	29.745 
00:50	50.4	50.4	50.4	96	49.3	2	7	90	0.00	29.746 
00:55	50.5	50.5	50.5	97	49.7	1	2	112	0.00	29.753 
01:00	50.7	50.7	50.7	97	49.9	0	0	---	0.00	29.756 
01:05	50.8	50.8	50.8	97	50.0	1	3	112	0.00	29.744 
01:10	51.0	51.0	51.0	97	50.2	1	3	112	0.01	29.744 
01:15	51.0	51.0	51.0	97	50.2	1	2	112	0.00	29.744 
01:20	51.1	51.1	51.1	97	50.3	1	4	112	0.00	29.744 
01:25	51.3	51.3	51.3	97	50.5	1	2	90	0.01	29.744 
01:30	51.4	51.4	51.4	97	50.6	1	3	90	0.01	29.742 
01:35	51.6	51.6	51.6	97	50.8	1	3	90	0.00	29.735 
01:40	51.7	51.7	51.7	97	50.9	2	4	112	0.00	29.736 
01:45	51.9	51.9	51.9	97	51.1	1	3	112	0.00	29.737 
01:50	52.0	52.0	52.0	98	51.5	1	2	112	0.00	29.739 
01:55	52.2	52.2	52.2	98	51.7	0	1	112	0.00	29.740 
02:00	52.3	52.3	52.3	98	51.8	0	1	112	0.01	29.741 
02:05	52.5	52.5	52.5	98	52.0	0	1	112	0.00	29.736 
02:10	52.8	52.8	52.8	98	52.2	0	2	112	0.01	29.734 
02:15	52.9	52.9	52.9	98	52.3	0	0	---	0.01	29.732 
02:20	53.3	53.3	53.3	98	52.7	0	2	112	0.01	29.727 
02:25	53.8	53.8	53.8	98	53.2	0	1	112	0.01	29.723 
02:30	54.8	54.8	54.8	98	54.2	1	3	90	0.02	29.722 
02:35	56.3	56.3	56.3	98	55.7	1	4	292	0.01	29.720 
02:40	57.3	57.3	57.3	99	57.0	2	4	248	0.00	29.719 
02:45	58.0	58.0	58.0	99	57.7	2	5	248	0.01	29.718 
02:50	58.4	58.4	58.4	99	58.1	3	8	248	0.01	29.718 
02:55	58.6	58.6	58.6	99	58.3	2	7	248	0.00	29.714 
03:00	58.6	58.6	58.6	99	58.3	1	4	270	0.01	29.711 
03:05	58.4	58.4	58.4	98	57.8	1	3	248	0.00	29.714 
03:10	58.4	58.4	58.4	98	57.8	1	3	248	0.01	29.714 
03:15	58.6	58.6	58.6	98	58.0	1	5	248	0.00	29.716 
03:20	58.6	58.6	58.6	98	58.0	1	4	248	0.01	29.714 
03:25	58.6	58.6	58.6	98	58.0	1	3	270	0.00	29.710 
03:30	58.6	58.6	58.6	98	58.0	1	4	90	0.00	29.706 
03:35	58.6	58.6	58.6	98	58.0	1	3	90	0.00	29.707 
03:40	58.4	58.4	58.4	97	57.5	1	6	90	0.00	29.701 
03:45	58.4	58.4	58.4	97	57.5	0	2	158	0.00	29.702 
03:50	58.4	58.4	58.4	97	57.5	0	3	135	0.00	29.704 
03:55	58.4	58.4	58.4	97	57.5	0	3	248	0.00	29.705 
04:00	58.4	58.4	58.4	97	57.5	1	3	248	0.00	29.707 
04:05	58.4	58.4	58.4	97	57.5	1	3	225	0.00	29.704 
04:10	58.4	58.4	58.4	97	57.5	1	3	158	0.00	29.700 
04:15	58.3	58.3	58.3	97	57.5	0	3	248	0.00	29.698 
04:20	58.1	58.1	58.1	96	57.0	0	1	248	0.00	29.698 
04:25	58.1	58.1	58.1	96	57.0	1	3	248	0.00	29.699 
04:30	58.1	58.1	58.1	96	57.0	1	3	248	0.00	29.700 
04:35	58.1	58.1	58.1	96	57.0	1	2	248	0.00	29.700 
04:40	58.1	58.1	58.1	96	57.0	1	3	248	0.00	29.701 
04:45	58.1	58.1	58.1	96	57.0	0	2	248	0.00	29.699 
04:50	58.1	58.1	58.1	96	57.0	0	1	248	0.00	29.700 
04:55	58.0	58.0	58.0	96	56.9	0	1	248	0.00	29.701 
05:00	58.1	58.1	58.1	96	57.0	1	3	248	0.00	29.704 
05:05	58.1	58.1	58.1	96	57.0	1	2	248	0.00	29.712 
05:10	58.1	58.1	58.1	96	57.0	4	7	248	0.01	29.719 
05:15	58.0	58.0	58.0	95	56.6	3	6	248	0.00	29.722 
05:20	57.8	57.8	57.8	94	56.1	2	9	225	0.00	29.731 
05:25	57.3	57.3	57.3	91	54.7	4	11	270	0.00	29.735 
05:30	57.0	57.0	57.0	88	53.5	3	11	248	0.00	29.736 
05:35	56.9	56.9	56.9	87	53.1	2	4	248	0.00	29.737 
05:40	56.7	56.7	56.7	84	51.9	3	11	248	0.00	29.742 
05:45	56.6	56.6	56.6	83	51.5	3	10	270	0.00	29.749 
05:50	56.6	56.6	56.6	83	51.5	3	7	270	0.00	29.752 
05:55	56.5	56.5	56.5	83	51.4	3	9	248	0.00	29.754 
06:00	56.2	56.2	56.2	84	51.4	2	4	248	0.00	29.755 
06:05	56.0	56.0	56.0	85	51.6	1	4	248	0.00	29.759 
06:10	55.7	55.7	55.7	87	51.9	1	3	248	0.00	29.761 
06:15	55.6	55.6	55.6	88	52.1	2	5	248	0.00	29.759 
06:20	55.1	55.1	55.1	85	50.7	2	5	248	0.00	29.759 
06:25	54.7	54.7	54.7	83	49.6	2	5	248	0.00	29.758 
06:30	54.4	54.4	54.4	82	49.0	1	4	270	0.00	29.758 
06:35	54.1	54.1	54.1	81	48.4	2	4	248	0.00	29.761 
06:40	53.8	53.8	53.8	81	48.1	1	3	248	0.00	29.768 
06:45	53.5	53.5	53.5	81	47.8	2	6	248	0.00	29.765 
06:50	53.3	53.3	53.3	80	47.3	2	5	248	0.00	29.765 
06:55	53.2	53.2	53.2	80	47.2	2	4	248	0.00	29.766 
07:00	53.1	53.1	53.1	80	47.1	1	4	248	0.00	29.764 
07:05	53.2	53.2	53.2	80	47.2	2	4	248	0.00	29.767 
07:10	53.3	53.3	53.3	78	46.6	2	5	248	0.00	29.768 
07:15	53.5	53.5	53.5	77	46.5	2	6	248	0.00	29.769 
07:20	53.6	53.6	53.6	77	46.6	2	4	248	0.00	29.768 
07:25	53.8	53.8	53.8	76	46.4	2	4	248	0.00	29.767 
07:30	53.9	53.9	53.9	75	46.2	1	5	248	0.00	29.772 
07:35	54.1	54.1	54.1	73	45.6	2	6	248	0.00	29.771 
07:40	54.4	54.4	54.4	73	45.9	2	5	248	0.00	29.772 
07:45	54.5	54.5	54.5	72	45.7	2	4	248	0.00	29.771 
07:50	54.8	54.8	54.8	72	45.9	2	5	248	0.00	29.769 
07:55	54.8	54.8	54.8	71	45.6	3	6	248	0.00	29.767 
08:00	55.1	55.1	55.1	71	45.9	2	5	248	0.00	29.767 
08:05	55.4	55.4	55.4	71	46.2	2	6	248	0.00	29.768 
08:10	55.7	55.7	55.7	70	46.1	2	6	248	0.00	29.768 
08:15	55.9	55.9	55.9	68	45.5	3	7	248	0.00	29.767 
08:20	56.2	56.2	56.2	69	46.2	2	5	248	0.00	29.766 
08:25	56.5	56.5	56.5	65	44.9	3	6	248	0.00	29.768 
08:30	56.9	56.9	56.9	65	45.3	2	5	248	0.00	29.767 
08:35	57.0	57.0	57.0	62	44.1	3	5	248	0.00	29.768 
08:40	57.3	57.3	57.3	62	44.4	2	5	248	0.00	29.768 
08:45	57.8	57.8	57.8	62	44.9	2	4	248	0.00	29.768 
08:50	58.1	58.1	58.1	60	44.3	2	7	248	0.00	29.767 
08:55	58.3	58.3	58.3	58	43.6	3	7	248	0.00	29.766 
09:00	58.4	58.4	58.4	57	43.2	3	7	248	0.00	29.765 
09:05	58.7	58.7	58.7	56	43.0	3	7	248	0.00	29.762 
09:10	58.9	58.9	58.9	57	43.7	3	7	248	0.00	29.762 
09:15	59.5	59.5	59.5	57	44.3	2	6	248	0.00	29.761 
09:20	59.8	59.8	59.8	55	43.6	2	4	248	0.00	29.761 
09:25	59.9	59.9	59.9	54	43.2	3	7	248	0.00	29.763 
09:30	60.2	60.2	60.2	54	43.5	2	7	248	0.00	29.764 
09:35	60.7	60.7	60.7	54	44.0	2	6	248	0.00	29.764 
09:40	60.9	60.9	60.9	52	43.2	3	10	248	0.00	29.764 
09:45	60.9	60.9	60.9	54	44.1	3	10	270	0.00	29.766 
09:50	61.0	61.0	61.0	54	44.2	3	10	248	0.00	29.767 
09:55	61.3	61.3	61.3	54	44.5	3	9	248	0.00	29.767 
10:00	61.5	61.5	61.5	50	42.7	4	9	248	0.00	29.768 
10:05	61.8	61.8	61.8	51	43.5	3	7	248	0.00	29.767 
10:10	61.8	61.8	61.8	52	44.0	3	10	248	0.00	29.767 
10:15	62.1	62.1	62.1	51	43.8	3	8	270	0.00	29.766 
10:20	62.3	62.3	62.3	52	44.4	4	12	225	0.00	29.766 
10:25	62.3	62.3	62.3	51	43.9	4	12	270	0.00	29.766 
10:30	62.6	62.6	62.6	51	44.2	3	8	248	0.00	29.761 
10:35	62.7	62.7	62.7	50	43.8	4	10	248	0.00	29.759 
10:40	63.2	63.2	63.2	51	44.8	3	8	90	0.00	29.759 
10:45	63.4	63.4	63.4	49	43.9	3	10	248	0.00	29.755 
10:50	63.2	63.2	63.2	49	43.7	4	14	248	0.00	29.754 
10:55	63.4	63.4	63.4	50	44.4	4	12	248	0.00	29.751 
11:00	63.4	63.4	63.4	49	43.9	5	13	270	0.00	29.749 
11:05	63.5	63.5	63.5	52	45.6	4	13	248	0.00	29.745 
11:10	63.9	63.9	63.9	50	44.9	5	10	270	0.00	29.741 
11:15	64.3	64.3	64.3	52	46.3	3	6	90	0.00	29.740 
11:20	64.8	64.8	64.8	49	45.2	3	7	90	0.00	29.735 
11:25	65.0	65.0	65.0	51	46.4	4	11	90	0.00	29.732 
11:30	65.0	65.0	65.0	48	44.8	5	16	270	0.00	29.731 
11:35	65.0	65.0	65.0	49	45.4	4	11	248	0.00	29.730 
11:40	65.2	65.2	65.2	49	45.6	4	9	270	0.00	29.728 
11:45	65.2	65.2	65.2	49	45.6	4	8	248	0.00	29.730 
11:50	65.6	65.6	65.6	51	47.0	2	6	270	0.00	29.727 
11:55	66.0	66.0	66.0	50	46.8	4	10	270	0.00	29.722 
12:00	65.6	65.6	65.6	46	44.3	5	14	248	0.00	29.720 
12:05	66.0	66.0	66.0	47	45.2	4	13	248	0.00	29.720 
12:10	66.4	66.4	66.4	48	46.1	4	9	248	0.00	29.719 
12:15	66.8	66.8	66.8	47	45.9	3	12	248	0.00	29.715 
12:20	66.9	66.9	66.9	43	43.7	4	12	248	0.00	29.714 
12:25	66.6	66.6	66.6	44	44.0	6	13	248	0.00	29.709 
12:30	66.8	66.8	66.8	47	45.9	4	14	248	0.00	29.708 
12:35	67.1	67.1	67.1	46	45.6	4	10	270	0.00	29.709 
12:40	66.9	66.9	66.9	42	43.1	6	17	248	0.00	29.708 
12:45	67.1	67.1	67.1	46	45.6	4	12	248	0.00	29.701 
12:50	67.4	67.4	67.4	45	45.3	5	12	248	0.00	29.700 
12:55	67.4	67.4	67.4	42	43.5	6	16	270	0.00	29.700 
13:00	67.8	67.8	67.8	41	43.2	6	13	270	0.00	29.700 
13:05	67.8	67.8	67.8	42	43.9	5	15	248	0.00	29.696 
13:10	68.3	68.3	68.3	42	44.3	5	14	270	0.00	29.696 
13:15	68.1	68.1	68.1	41	43.5	6	14	270	0.00	29.695 
13:20	68.1	68.1	68.1	43	44.7	5	14	248	0.00	29.688 
13:25	67.8	67.8	67.8	44	45.1	6	16	270	0.00	29.685 
13:30	68.1	68.1	68.1	42	44.1	7	14	248	0.00	29.682 
13:35	68.4	68.4	68.4	45	46.2	5	14	248	0.00	29.681 
13:40	68.6	68.6	68.6	44	45.8	8	15	270	0.00	29.680 
13:45	68.3	68.3	68.3	43	44.9	5	14	248	0.00	29.679 
13:50	67.9	67.9	67.9	44	45.2	4	13	270	0.00	29.676 
13:55	68.1	68.1	68.1	41	43.5	6	14	248	0.00	29.670 
14:00	68.4	68.4	68.4	43	45.0	6	15	248	0.00	29.669 
14:05	68.4	68.4	68.4	41	43.8	7	20	248	0.00	29.659 
14:10	68.9	68.9	68.9	40	43.6	6	16	248	0.00	29.654 
14:15	69.4	69.4	69.4	37	42.0	6	14	248	0.00	29.652 
14:20	69.6	69.6	69.6	41	44.8	5	16	270	0.00	29.646 
14:25	69.8	69.8	69.8	37	42.3	8	17	270	0.00	29.647 
14:30	70.3	70.3	70.3	38	43.5	5	13	248	0.00	29.645 
14:35	70.1	70.1	70.1	39	44.0	6	16	248	0.00	29.641 
14:40	70.1	70.1	70.1	36	41.9	7	17	248	0.00	29.642 
14:45	70.3	70.3	70.3	39	44.2	6	14	248	0.00	29.640 
14:50	70.3	70.3	70.3	39	44.2	5	13	270	0.00	29.633 
14:55	70.4	70.4	70.4	38	43.6	6	11	248	0.00	29.635 
15:00	70.6	70.6	70.6	36	42.3	5	16	248	0.00	29.636 
15:05	70.1	70.1	70.1	38	43.3	6	13	248	0.00	29.636 
15:10	69.9	69.9	69.9	40	44.5	4	11	270	0.00	29.634 
15:15	69.1	69.1	69.1	37	41.7	6	19	248	0.00	29.635 
15:20	68.9	68.9	68.9	36	40.8	9	17	248	0.00	29.631 
15:25	68.9	68.9	68.9	38	42.2	5	14	248	0.00	29.629 
15:30	68.9	68.9	68.9	38	42.2	6	15	270	0.00	29.628 
15:35	68.3	68.3	68.3	39	42.4	6	13	248	0.00	29.625 
15:40	67.8	67.8	67.8	39	41.9	5	11	248	0.00	29.626 
15:45	67.8	67.8	67.8	40	42.6	5	12	248	0.00	29.619 
15:50	67.6	67.6	67.6	40	42.4	7	18	248	0.00	29.624 
15:55	67.4	67.4	67.4	42	43.5	5	12	248	0.00	29.629 
16:00	66.8	66.8	66.8	45	44.8	8	20	270	0.00	29.635 
16:05	66.1	66.1	66.1	45	44.1	8	17	270	0.00	29.630 
16:10	66.4	66.4	66.4	45	44.4	6	12	270	0.00	29.632 
16:15	66.8	66.8	66.8	43	43.6	6	16	270	0.00	29.631 
16:20	66.8	66.8	66.8	43	43.6	7	15	270	0.00	29.634 
16:25	66.8	66.8	66.8	42	43.0	7	15	270	0.00	29.633 
16:30	66.6	66.6	66.6	43	43.4	6	14	248	0.00	29.631 
16:35	66.3	66.3	66.3	44	43.7	4	11	270	0.00	29.630 
16:40	66.1	66.1	66.1	44	43.5	4	12	248	0.00	29.626 
16:45	66.1	66.1	66.1	46	44.7	4	11	270	0.00	29.630 
16:50	65.8	65.8	65.8	47	45.0	4	12	248	0.00	29.635 
16:55	65.8	65.8	65.8	47	45.0	3	9	270	0.00	29.632 
17:00	65.8	65.8	65.8	46	44.4	3	10	248	0.00	29.630 
17:05	65.8	65.8	65.8	48	45.6	3	9	270	0.00	29.632 
17:10	65.5	65.5	65.5	49	45.8	3	9	248	0.00	29.632 
17:15	65.5	65.5	65.5	47	44.7	4	12	248	0.00	29.632 
17:20	65.8	65.8	65.8	46	44.4	4	12	248	0.00	29.632 
17:25	66.1	66.1	66.1	44	43.5	5	12	248	0.00	29.634 
17:30	66.3	66.3	66.3	43	43.1	5	12	248	0.00	29.633 
17:35	66.3	66.3	66.3	43	43.1	3	11	270	0.00	29.633 
17:40	66.4	66.4	66.4	43	43.2	5	13	248	0.00	29.634 
17:45	66.4	66.4	66.4	42	42.6	5	13	248	0.00	29.634 
17:50	66.6	66.6	66.6	43	43.4	6	13	248	0.00	29.636 
17:55	66.4	66.4	66.4	43	43.2	3	10	248	0.00	29.637 
18:00	66.4	66.4	66.4	43	43.2	6	11	248	0.00	29.640 
18:05	66.4	66.4	66.4	43	43.2	3	10	248	0.00	29.642 
18:10	66.3	66.3	66.3	43	43.1	4	11	270	0.00	29.647 
18:15	66.3	66.3	66.3	43	43.1	5	12	248	0.00	29.641 
18:20	66.3	66.3	66.3	44	43.7	4	11	248	0.00	29.643 
18:25	66.3	66.3	66.3	44	43.7	4	11	248	0.00	29.643 
18:30	66.1	66.1	66.1	44	43.5	3	7	248	0.00	29.641 
18:35	66.0	66.0	66.0	45	44.0	4	10	248	0.00	29.642 
18:40	66.0	66.0	66.0	45	44.0	5	12	270	0.00	29.644 
18:45	66.0	66.0	66.0	45	44.0	5	10	248	0.00	29.648 
18:50	65.8	65.8	65.8	45	43.9	4	12	270	0.00	29.650 
18:55	65.8	65.8	65.8	45	43.9	4	12	248	0.00	29.651 
19:00	65.6	65.6	65.6	46	44.3	3	10	248	0.00	29.651 
19:05	65.5	65.5	65.5	46	44.2	3	7	248	0.00	29.651 
19:10	65.5	65.5	65.5	47	44.7	3	7	248	0.00	29.650 
19:15	65.3	65.3	65.3	47	44.5	3	7	248	0.00	29.650 
19:20	65.2	65.2	65.2	47	44.5	4	8	248	0.00	29.651 
19:25	65.0	65.0	65.0	48	44.8	3	7	248	0.00	29.653 
19:30	64.8	64.8	64.8	49	45.2	3	7	248	0.00	29.656 
19:35	64.7	64.7	64.7	49	45.1	3	10	248	0.00	29.661 
19:40	64.5	64.5	64.5	49	44.9	3	7	248	0.00	29.663 
19:45	64.2	64.2	64.2	50	45.2	2	5	270	0.00	29.666 
19:50	64.0	64.0	64.0	50	45.0	3	6	248	0.00	29.670 
19:55	63.9	63.9	63.9	50	44.9	2	6	248	0.00	29.679 
20:00	63.7	63.7	63.7	51	45.2	2	5	248	0.00	29.681 
20:05	63.4	63.4	63.4	51	45.0	1	4	248	0.00	29.681 
20:10	63.1	63.1	63.1	50	44.2	1	6	248	0.00	29.690 
20:15	63.1	63.1	63.1	49	43.6	3	12	270	0.00	29.692 
20:20	63.1	63.1	63.1	50	44.2	3	7	270	0.00	29.697 
20:25	62.7	62.7	62.7	50	43.8	2	6	248	0.00	29.703 
20:30	62.4	62.4	62.4	50	43.5	2	5	248	0.00	29.711 
20:35	62.1	62.1	62.1	50	43.2	3	9	270	0.00	29.714 
20:40	61.0	61.0	61.0	52	43.2	2	6	292	0.00	29.726 
20:45	60.1	60.1	60.1	54	43.4	2	7	270	0.00	29.728 
20:50	59.3	59.3	59.3	54	42.7	2	5	270	0.00	29.729 
20:55	58.6	58.6	58.6	56	43.0	2	4	248	0.00	29.731 
21:00	58.1	58.1	58.1	57	42.9	1	4	270	0.00	29.733 
21:05	57.6	57.6	57.6	58	42.9	0	2	270	0.00	29.734 
21:10	57.0	57.0	57.0	60	43.3	1	2	270	0.00	29.741 
21:15	56.6	56.6	56.6	61	43.3	2	4	270	0.00	29.745 
21:20	56.2	56.2	56.2	60	42.5	3	7	270	0.00	29.746 
21:25	55.9	55.9	55.9	61	42.6	2	6	248	0.00	29.747 
21:30	55.6	55.6	55.6	62	42.8	1	3	270	0.00	29.748 
21:35	55.1	55.1	55.1	62	42.3	1	5	270	0.00	29.753 
21:40	55.0	55.0	55.0	62	42.2	2	7	248	0.00	29.753 
21:45	54.8	54.8	54.8	62	42.0	2	7	248	0.00	29.753 
21:50	54.7	54.7	54.7	63	42.4	1	5	248	0.00	29.755 
21:55	54.4	54.4	54.4	63	42.1	2	5	248	0.00	29.755 
22:00	54.2	54.2	54.2	64	42.3	1	4	248	0.00	29.757 
22:05	54.4	54.4	54.4	64	42.5	4	11	248	0.00	29.760 
22:10	54.2	54.2	54.2	64	42.3	3	7	248	0.00	29.760 
22:15	54.2	54.2	54.2	64	42.3	2	6	248	0.00	29.762 
22:20	54.1	54.1	54.1	65	42.6	3	6	248	0.00	29.761 
22:25	53.9	53.9	53.9	65	42.4	2	6	248	0.00	29.762 
22:30	53.8	53.8	53.8	65	42.3	2	10	248	0.00	29.762 
22:35	53.8	53.8	53.8	65	42.3	3	9	248	0.00	29.763 
22:40	53.8	53.8	53.8	66	42.7	1	5	248	0.00	29.762 
22:45	53.6	53.6	53.6	66	42.5	2	4	248	0.00	29.764 
22:50	53.6	53.6	53.6	66	42.5	1	5	248	0.00	29.766 
22:55	53.6	53.6	53.6	66	42.5	1	4	248	0.00	29.773 
23:00	53.5	53.5	53.5	66	42.4	1	4	248	0.00	29.768 
23:05	53.5	53.5	53.5	67	42.8	0	4	248	0.00	29.767 
23:10	53.2	53.2	53.2	67	42.5	0	1	248	0.00	29.767 
23:15	53.1	53.1	53.1	68	42.8	0	2	248	0.00	29.767 
23:20	52.8	52.8	52.8	68	42.5	1	2	248	0.00	29.773 
23:25	52.6	52.6	52.6	69	42.7	1	2	248	0.00	29.778 
23:30	52.5	52.5	52.5	69	42.6	1	3	248	0.00	29.777 
23:35	52.5	52.5	52.5	69	42.6	0	1	248	0.00	29.777 
23:40	52.5	52.5	52.5	69	42.6	0	1	248	0.00	29.777 
23:45	52.3	52.3	52.3	70	42.8	0	2	248	0.00	29.780 
23:50	52.2	52.2	52.2	70	42.7	0	2	248	0.00	29.778 
23:55	52.2	52.2	52.2	70	42.7	1	4	248	0.00	29.778 

CoCoRaHS
IN-AL-39
A2 Web Hosting
Creative Commons License
GoDaddy
Look for:

loaded 2017-10-18 07:10:45 • last modified 2010-11-18 10:43:29
Privacy PolicyDisclaimer
• wx.awcolley.com is powered by PmWiki v.2002016 •
• all content (unless otherwise noted) © 2017 A W Colley